Averill, Minnesota
Current Conditions -  °F | °C
As of 4:54 PM on Saturday 25 Oct 2014 (Local Time) from KJKJ Reporting Station
Clear Clear  
Wind Chill: 61°   Ceiling: Unl
Heat Index: 61°   Visibility: 10mi
Dew Point:   Wind: 9mph
Humidity: 13%   Direction: 310°NW
Pressure: 30.08"   Gusts: 17mph
Location:  46.8905°N, 96.5417°W
Report Text: KJKJ 252154Z AUTO 31008G15KT 10SM CLR 16/M13 A3008 RMK AO2
Loading
Personal Weather Stations






























Interactive Weather Map
Tropical Storm Tracking
New forecast layout! Learn more

10-Day Weather Forecast

Advertisements
Track Severe Weather on mobile